WXM80 ListenWXM80 Stop

You find our weather info also at:

UK Metoffice

WeatherCloud

Weather Underground

Northeastern Weather Network

AWEKAS

Citizen Weather Observer Program (CWOP)

HAMweather, WeatherForYou, PWS Weather


Weather Underground History page Text

Daily Summary for August 8, 2017 Units:  English    Metric   Both
« Previous Day
Next Day »
Daily Weekly Monthly Yearly Custom
  High: Low: Average:
Temperature: 80.7 °F 65.6 °F 70.4 °F
Dew Point: 68.1 °F 61.2 °F 64.9 °F
Humidity: 97 % 60 % 84 %
Wind Speed: 8.1 mph 0.0 mph 1.7 mph
Wind Gust: 12.7 mph - -
Wind:- - SSE
Pressure: 30.04 in 29.82 in -
Precipitation: 0.01 in    
Historical Graphs
 
 
Tabular Data for August 8, 2017
Time Temperature Dew Point Pressure Wind Wind Speed Wind Gust Humidity Rainfall Rate (Hourly)
00:08 65.8 °F 64.9 °F 29.85 in Calm     97 % 0.00 in
00:13 65.9 °F 65.0 °F 29.85 in Calm   1.2 mph 97 % 0.00 in
00:18 65.9 °F 65.0 °F 29.85 in ENE 0.1 mph 3.5 mph 97 % 0.00 in
00:23 65.9 °F 65.0 °F 29.85 in ENE 0.3 mph 2.3 mph 97 % 0.00 in
00:28 65.9 °F 65.0 °F 29.85 in Calm     97 % 0.00 in
00:33 66.0 °F 65.1 °F 29.85 in ENE 0.1 mph 1.2 mph 97 % 0.00 in
00:38 66.0 °F 65.1 °F 29.85 in ENE 0.1 mph 2.3 mph 97 % 0.00 in
00:43 66.1 °F 65.2 °F 29.85 in NE 1.2 mph 3.5 mph 97 % 0.00 in
00:48 66.1 °F 65.2 °F 29.85 in NE 1.1 mph 2.3 mph 97 % 0.00 in
00:53 66.1 °F 65.2 °F 29.84 in ENE 1.5 mph 4.0 mph 97 % 0.00 in
00:59 66.2 °F 65.3 °F 29.84 in NE 0.6 mph 4.6 mph 97 % 0.00 in
01:04 66.2 °F 65.3 °F 29.84 in NE 0.9 mph 2.3 mph 97 % 0.00 in
01:09 66.3 °F 65.4 °F 29.83 in NE 1.2 mph 3.5 mph 97 % 0.00 in
01:14 66.3 °F 65.4 °F 29.83 in NE 1.9 mph 4.0 mph 97 % 0.00 in
01:19 66.3 °F 65.4 °F 29.83 in ENE 1.9 mph 4.0 mph 97 % 0.00 in
01:24 66.3 °F 65.4 °F 29.83 in ENE 1.9 mph 4.6 mph 97 % 0.00 in
01:29 66.3 °F 65.4 °F 29.83 in ENE 2.1 mph 3.5 mph 97 % 0.00 in
01:34 66.3 °F 65.4 °F 29.83 in North 0.3 mph 3.5 mph 97 % 0.00 in
01:39 66.4 °F 65.5 °F 29.83 in NNE 2.3 mph 5.8 mph 97 % 0.00 in
01:44 66.4 °F 65.5 °F 29.83 in NE 2.6 mph 5.8 mph 97 % 0.00 in
01:49 66.4 °F 65.5 °F 29.83 in North 2.3 mph 7.0 mph 97 % 0.00 in
01:54 66.4 °F 65.5 °F 29.83 in North 4.1 mph 8.1 mph 97 % 0.00 in
01:59 66.4 °F 65.5 °F 29.82 in NNE 5.2 mph 8.0 mph 97 % 0.00 in
02:04 66.3 °F 65.4 °F 29.83 in NNE 5.9 mph 9.2 mph 97 % 0.00 in
02:09 66.3 °F 65.4 °F 29.82 in NNE 4.2 mph 9.0 mph 97 % 0.00 in
02:14 66.3 °F 65.4 °F 29.83 in North 3.3 mph 5.8 mph 97 % 0.00 in
02:19 66.2 °F 65.3 °F 29.83 in NNE 5.0 mph 6.9 mph 97 % 0.00 in
02:22 66.1 °F 65.2 °F 29.82 in NNE 4.9 mph 9.2 mph 97 % 0.00 in
02:27 66.1 °F 65.2 °F 29.83 in NE 1.4 mph 3.5 mph 97 % 0.00 in
02:32 66.0 °F 65.1 °F 29.83 in NE 1.8 mph 5.0 mph 97 % 0.00 in
02:37 66.0 °F 65.1 °F 29.83 in NNE 4.3 mph 8.1 mph 97 % 0.00 in
02:42 66.0 °F 65.1 °F 29.82 in NNE 3.0 mph 4.6 mph 97 % 0.00 in
02:47 66.0 °F 65.1 °F 29.82 in NNE 0.6 mph 2.3 mph 97 % 0.00 in
02:52 66.0 °F 65.1 °F 29.82 in ENE 4.8 mph 7.0 mph 97 % 0.00 in
02:57 66.0 °F 65.1 °F 29.82 in NNE 1.9 mph 4.0 mph 97 % 0.00 in
03:02 65.9 °F 65.0 °F 29.83 in ENE 2.3 mph 3.5 mph 97 % 0.00 in
03:07 65.9 °F 65.0 °F 29.83 in NE 2.4 mph 4.0 mph 97 % 0.00 in
03:12 65.9 °F 65.0 °F 29.83 in ENE 2.6 mph 3.5 mph 97 % 0.00 in
03:17 66.0 °F 65.1 °F 29.83 in NE 1.4 mph 3.5 mph 97 % 0.00 in
03:22 65.9 °F 65.0 °F 29.82 in NNE 3.9 mph 6.9 mph 97 % 0.00 in
03:27 65.9 °F 65.0 °F 29.83 in NE 0.1 mph 3.5 mph 97 % 0.00 in
03:32 65.9 °F 65.0 °F 29.83 in North 1.9 mph 3.5 mph 97 % 0.00 in
03:37 65.9 °F 65.0 °F 29.82 in NNE 1.6 mph 2.3 mph 97 % 0.00 in
03:42 65.9 °F 65.0 °F 29.83 in NNE 2.7 mph 4.6 mph 97 % 0.00 in
03:47 65.9 °F 65.0 °F 29.83 in NNE 1.0 mph 4.6 mph 97 % 0.00 in
03:52 65.8 °F 64.9 °F 29.83 in NNE 1.4 mph 3.5 mph 97 % 0.00 in
03:57 65.8 °F 64.9 °F 29.83 in ENE 0.8 mph 3.5 mph 97 % 0.00 in
04:02 65.8 °F 64.9 °F 29.82 in NNE 1.0 mph 3.5 mph 97 % 0.00 in
04:07 65.8 °F 64.9 °F 29.82 in NE 1.5 mph 4.6 mph 97 % 0.00 in
04:12 65.8 °F 64.9 °F 29.82 in NNW 2.2 mph 4.0 mph 97 % 0.00 in
04:17 65.8 °F 64.9 °F 29.82 in NNE 0.2 mph 1.2 mph 97 % 0.00 in
04:22 65.8 °F 64.9 °F 29.82 in ENE 1.3 mph 3.5 mph 97 % 0.00 in
04:27 65.7 °F 64.8 °F 29.82 in ENE 1.5 mph 4.0 mph 97 % 0.00 in
04:32 65.8 °F 64.9 °F 29.82 in NNE 0.4 mph 2.3 mph 97 % 0.00 in
04:37 65.8 °F 64.9 °F 29.82 in Calm   1.2 mph 97 % 0.00 in
04:42 65.7 °F 64.8 °F 29.82 in NE 0.8 mph 3.0 mph 97 % 0.00 in
04:47 65.7 °F 64.8 °F 29.82 in NE 0.8 mph 3.5 mph 97 % 0.00 in
04:52 65.7 °F 64.8 °F 29.82 in North 1.0 mph 4.6 mph 97 % 0.00 in
04:57 65.7 °F 64.8 °F 29.83 in NNE 0.8 mph 3.5 mph 97 % 0.00 in
05:03 65.7 °F 64.8 °F 29.83 in NNE 0.9 mph 2.3 mph 97 % 0.00 in
05:08 65.7 °F 64.8 °F 29.83 in NNE 3.5 mph 5.8 mph 97 % 0.00 in
05:13 65.7 °F 64.8 °F 29.82 in NNE 1.2 mph 3.5 mph 97 % 0.00 in
05:18 65.7 °F 64.8 °F 29.82 in North 1.5 mph 5.8 mph 97 % 0.00 in
05:23 65.6 °F 64.7 °F 29.82 in NNE 1.6 mph 3.5 mph 97 % 0.00 in
05:28 65.7 °F 64.8 °F 29.82 in NNE 3.4 mph 5.8 mph 97 % 0.00 in
05:33 65.7 °F 64.8 °F 29.82 in North 1.9 mph 4.6 mph 97 % 0.00 in
05:38 65.7 °F 64.8 °F 29.83 in NNE 2.9 mph 4.6 mph 97 % 0.00 in
05:43 65.7 °F 64.8 °F 29.83 in NNE 3.0 mph 6.0 mph 97 % 0.00 in
05:48 65.7 °F 64.8 °F 29.83 in NNW 2.1 mph 4.6 mph 97 % 0.00 in
05:53 65.7 °F 64.8 °F 29.83 in NNE 2.8 mph 4.0 mph 97 % 0.00 in
05:58 65.6 °F 64.7 °F 29.82 in NNE 2.5 mph 3.5 mph 97 % 0.00 in
06:03 65.6 °F 64.7 °F 29.82 in NNE 1.7 mph 3.5 mph 97 % 0.00 in
06:08 65.6 °F 64.7 °F 29.83 in NNE 1.3 mph 3.5 mph 97 % 0.00 in
06:13 65.6 °F 64.7 °F 29.83 in NNE 3.1 mph 4.6 mph 97 % 0.00 in
06:18 65.6 °F 64.7 °F 29.83 in NNE 2.0 mph 3.5 mph 97 % 0.00 in
06:23 65.6 °F 64.7 °F 29.83 in NNE 0.4 mph 2.3 mph 97 % 0.00 in
06:28 65.6 °F 64.7 °F 29.83 in Calm   1.2 mph 97 % 0.00 in
06:33 65.6 °F 64.7 °F 29.84 in NNE 2.3 mph 5.0 mph 97 % 0.00 in
06:38 65.6 °F 64.7 °F 29.84 in North 2.7 mph 3.5 mph 97 % 0.00 in
06:43 65.6 °F 64.7 °F 29.84 in North 0.4 mph 3.5 mph 97 % 0.00 in
06:49 65.6 °F 64.7 °F 29.84 in NNE 2.3 mph 3.0 mph 97 % 0.00 in
06:54 65.6 °F 64.7 °F 29.83 in NNE 1.0 mph 3.5 mph 97 % 0.00 in
06:59 65.7 °F 64.8 °F 29.83 in NNE 1.6 mph 3.5 mph 97 % 0.00 in
07:04 65.7 °F 64.8 °F 29.83 in NNE 3.0 mph 3.5 mph 97 % 0.00 in
07:09 65.7 °F 64.8 °F 29.84 in North 0.7 mph 3.0 mph 97 % 0.00 in
07:14 65.7 °F 64.8 °F 29.84 in NNW 1.8 mph 4.6 mph 97 % 0.00 in
07:19 65.7 °F 64.8 °F 29.84 in NNE 2.4 mph 3.5 mph 97 % 0.00 in
07:24 65.8 °F 64.9 °F 29.84 in North 1.7 mph 3.0 mph 97 % 0.00 in
07:29 65.8 °F 64.9 °F 29.85 in NNW 2.4 mph 3.5 mph 97 % 0.00 in
07:34 65.8 °F 64.9 °F 29.85 in North 1.3 mph 2.3 mph 97 % 0.00 in
07:36 65.8 °F 64.9 °F 29.85 in Calm   3.5 mph 97 % 0.00 in
07:41 65.8 °F 64.9 °F 29.85 in NNE 2.0 mph 3.5 mph 97 % 0.00 in
07:46 65.9 °F 65.0 °F 29.85 in NNE 2.6 mph 3.5 mph 97 % 0.00 in
07:51 65.9 °F 65.0 °F 29.85 in NNE 2.9 mph 3.5 mph 97 % 0.00 in
07:56 65.9 °F 65.0 °F 29.85 in NNW 1.2 mph 3.5 mph 97 % 0.00 in
08:01 65.9 °F 65.0 °F 29.86 in NNE 1.7 mph 5.0 mph 97 % 0.00 in
08:06 66.0 °F 65.1 °F 29.86 in North 2.2 mph 3.5 mph 97 % 0.00 in
08:11 65.9 °F 65.0 °F 29.86 in NNW 2.4 mph 4.6 mph 97 % 0.00 in
08:16 66.0 °F 64.8 °F 29.86 in NNE 4.3 mph 4.6 mph 96 % 0.00 in
08:21 66.1 °F 64.9 °F 29.86 in North 0.4 mph 2.3 mph 96 % 0.00 in
08:26 66.1 °F 64.9 °F 29.86 in North 3.1 mph 4.0 mph 96 % 0.00 in
08:31 66.2 °F 65.0 °F 29.86 in NNE 2.2 mph 3.5 mph 96 % 0.00 in
08:36 66.2 °F 65.0 °F 29.86 in NNW 3.9 mph 5.8 mph 96 % 0.00 in
08:41 66.3 °F 65.1 °F 29.86 in NNE 1.3 mph 4.0 mph 96 % 0.00 in
08:46 66.5 °F 65.3 °F 29.86 in NNE 1.1 mph 3.5 mph 96 % 0.00 in
08:51 66.5 °F 65.3 °F 29.86 in NW 1.1 mph 3.5 mph 96 % 0.00 in
08:56 66.6 °F 65.4 °F 29.86 in NNW 0.7 mph 3.5 mph 96 % 0.00 in
09:01 66.7 °F 65.5 °F 29.86 in NNW 3.4 mph 6.0 mph 96 % 0.00 in
09:07 66.7 °F 65.5 °F 29.87 in NNE 1.5 mph 3.5 mph 96 % 0.00 in
09:12 66.7 °F 65.5 °F 29.87 in NNE 1.1 mph 2.0 mph 96 % 0.00 in
09:17 66.7 °F 65.5 °F 29.87 in NNE 2.6 mph 5.8 mph 96 % 0.00 in
09:22 66.7 °F 65.2 °F 29.87 in North 3.7 mph 6.0 mph 95 % 0.01 in
09:27 66.7 °F 65.2 °F 29.87 in NNE 1.1 mph 4.0 mph 95 % 0.01 in
09:32 66.7 °F 65.2 °F 29.87 in NNE 3.7 mph 5.8 mph 95 % 0.01 in
09:37 66.7 °F 65.2 °F 29.88 in North 4.3 mph 6.9 mph 95 % 0.01 in
09:42 66.8 °F 65.3 °F 29.88 in NNE 1.5 mph 4.6 mph 95 % 0.01 in
09:47 66.9 °F 65.4 °F 29.88 in North 3.7 mph 4.6 mph 95 % 0.01 in
09:52 66.9 °F 65.1 °F 29.88 in NNW 1.6 mph 4.6 mph 94 % 0.01 in
09:57 67.0 °F 65.2 °F 29.88 in NNW 1.4 mph 4.6 mph 94 % 0.01 in
10:02 67.1 °F 65.3 °F 29.88 in NW 2.8 mph 5.8 mph 94 % 0.01 in
10:07 67.3 °F 65.2 °F 29.88 in North 1.6 mph 5.8 mph 93 % 0.01 in
10:12 67.4 °F 65.3 °F 29.88 in NE 5.1 mph 6.9 mph 93 % 0.01 in
10:17 67.5 °F 65.1 °F 29.89 in NNW 2.5 mph 6.9 mph 92 % 0.01 in
10:22 67.6 °F 64.9 °F 29.88 in NNW 0.6 mph 2.3 mph 91 % 0.00 in
10:27 67.7 °F 65.0 °F 29.88 in NNE 3.9 mph 6.9 mph 91 % 0.00 in
10:32 67.9 °F 65.2 °F 29.89 in North 4.1 mph 5.8 mph 91 % 0.00 in
10:37 68.0 °F 65.3 °F 29.88 in NW 1.9 mph 4.6 mph 91 % 0.00 in
10:42 68.1 °F 64.7 °F 29.89 in North 2.4 mph 4.6 mph 89 % 0.00 in
10:47 68.1 °F 64.7 °F 29.89 in NNW 4.1 mph 8.1 mph 89 % 0.00 in
10:52 68.1 °F 64.7 °F 29.89 in NNE 5.6 mph 9.0 mph 89 % 0.00 in
10:57 68.2 °F 64.8 °F 29.89 in NNE 4.5 mph 8.1 mph 89 % 0.00 in
11:02 68.2 °F 64.5 °F 29.89 in NW 7.5 mph 11.5 mph 88 % 0.00 in
11:07 68.2 °F 64.5 °F 29.89 in North 8.1 mph 12.7 mph 88 % 0.00 in
11:12 68.2 °F 64.5 °F 29.89 in North 2.0 mph 4.6 mph 88 % 0.00 in
11:17 68.4 °F 64.4 °F 29.89 in North 5.5 mph 8.1 mph 87 % 0.00 in
11:22 68.6 °F 64.6 °F 29.89 in NNE 5.7 mph 10.4 mph 87 % 0.00 in
11:27 68.8 °F 64.4 °F 29.89 in North 5.7 mph 8.1 mph 86 % 0.00 in
11:32 68.9 °F 64.5 °F 29.89 in NNE 4.9 mph 8.1 mph 86 % 0.00 in
11:37 69.2 °F 64.8 °F 29.90 in NNE 3.9 mph 5.8 mph 86 % 0.00 in
11:42 69.4 °F 65.0 °F 29.90 in NNE 3.9 mph 5.8 mph 86 % 0.00 in
11:47 69.7 °F 65.0 °F 29.89 in NNE 5.5 mph 9.2 mph 85 % 0.00 in
11:48 69.7 °F 65.0 °F 29.89 in North 4.1 mph 9.2 mph 85 % 0.00 in
11:53 70.1 °F 65.4 °F 29.90 in North 6.5 mph 9.2 mph 85 % 0.00 in
11:58 70.4 °F 65.3 °F 29.90 in NNE 3.8 mph 6.9 mph 84 % 0.00 in
12:03 70.7 °F 65.6 °F 29.91 in NNE 4.9 mph 6.9 mph 84 % 0.00 in
12:08 70.9 °F 65.5 °F 29.91 in NNW 1.6 mph 4.6 mph 83 % 0.00 in
12:13 71.1 °F 65.3 °F 29.91 in NNE 3.4 mph 5.8 mph 82 % 0.00 in
12:18 71.2 °F 65.8 °F 29.91 in NNW 1.6 mph 3.5 mph 83 % 0.00 in
12:23 71.3 °F 65.5 °F 29.91 in North 4.1 mph 6.9 mph 82 % 0.00 in
12:28 71.5 °F 65.4 °F 29.92 in NE 2.6 mph 5.8 mph 81 % 0.00 in
12:33 71.8 °F 66.0 °F 29.91 in NE 3.3 mph 6.9 mph 82 % 0.00 in
12:38 72.6 °F 67.8 °F 29.91 in North 1.9 mph 4.6 mph 85 % 0.00 in
12:43 73.7 °F 67.5 °F 29.91 in NNE 4.2 mph 5.8 mph 81 % 0.00 in
12:48 74.4 °F 66.7 °F 29.92 in North 3.2 mph 7.0 mph 77 % 0.00 in
12:49 74.6 °F 67.3 °F 29.92 in NNE 4.0 mph 6.9 mph 78 % 0.00 in
12:54 75.4 °F 66.9 °F 29.91 in North 4.2 mph 6.9 mph 75 % 0.00 in
12:59 75.6 °F 66.3 °F 29.92 in North 5.4 mph 8.1 mph 73 % 0.00 in
13:04 75.7 °F 66.0 °F 29.91 in North 2.5 mph 4.0 mph 72 % 0.00 in
13:09 75.8 °F 66.5 °F 29.92 in NNE 2.6 mph 4.6 mph 73 % 0.00 in
13:14 76.0 °F 66.7 °F 29.91 in NNE 3.8 mph 6.0 mph 73 % 0.00 in
13:19 76.3 °F 67.0 °F 29.92 in North 1.5 mph 2.3 mph 73 % 0.00 in
13:24 76.9 °F 67.6 °F 29.91 in NNE 1.6 mph 5.8 mph 73 % 0.00 in
13:29 77.5 °F 66.9 °F 29.92 in NNE 3.2 mph 4.6 mph 70 % 0.00 in
13:34 77.8 °F 67.2 °F 29.92 in North 1.4 mph 5.0 mph 70 % 0.00 in
13:39 77.9 °F 66.5 °F 29.91 in NNW 1.3 mph 3.5 mph 68 % 0.00 in
13:44 78.1 °F 67.1 °F 29.92 in WNW 2.6 mph 4.6 mph 69 % 0.00 in
13:49 78.2 °F 66.3 °F 29.92 in NNW 1.3 mph 3.5 mph 67 % 0.00 in
13:54 78.4 °F 67.4 °F 29.92 in NW 0.4 mph 3.5 mph 69 % 0.00 in
13:59 78.5 °F 66.6 °F 29.92 in WNW 2.1 mph 5.0 mph 67 % 0.00 in
14:04 78.7 °F 68.1 °F 29.92 in NW 0.3 mph 3.5 mph 70 % 0.00 in
14:09 78.8 °F 67.8 °F 29.92 in West 2.1 mph 3.0 mph 69 % 0.00 in
14:14 78.8 °F 66.9 °F 29.92 in West 1.0 mph 3.0 mph 67 % 0.00 in
14:19 79.0 °F 67.5 °F 29.92 in WNW 1.4 mph 2.0 mph 68 % 0.00 in
14:24 79.2 °F 68.1 °F 29.92 in NW 1.0 mph 3.5 mph 69 % 0.00 in
14:29 79.4 °F 67.5 °F 29.92 in NNE 1.0 mph 1.2 mph 67 % 0.00 in
14:35 79.8 °F 67.9 °F 29.92 in North 0.7 mph 3.5 mph 67 % 0.00 in
14:40 79.9 °F 67.5 °F 29.92 in WNW 0.4 mph 3.5 mph 66 % 0.00 in
14:45 80.0 °F 67.6 °F 29.92 in WNW 1.1 mph 3.5 mph 66 % 0.00 in
14:49 80.1 °F 66.4 °F 29.91 in West 1.5 mph 3.5 mph 63 % 0.00 in
14:54 80.3 °F 66.1 °F 29.92 in WNW 3.7 mph 4.0 mph 62 % 0.00 in
14:59 80.5 °F 66.3 °F 29.92 in NW 1.6 mph 3.5 mph 62 % 0.00 in
15:04 80.7 °F 66.0 °F 29.92 in WNW 1.5 mph 3.5 mph 61 % 0.00 in
15:09 80.7 °F 66.5 °F 29.92 in NW 1.3 mph 3.5 mph 62 % 0.00 in
15:14 80.3 °F 67.5 °F 29.92 in NW 0.6 mph 2.3 mph 65 % 0.00 in
15:19 80.3 °F 67.0 °F 29.92 in NNE 3.1 mph 5.8 mph 64 % 0.00 in
15:24 80.3 °F 67.5 °F 29.92 in NNW 0.5 mph 2.3 mph 65 % 0.00 in
15:29 80.4 °F 66.6 °F 29.92 in NNE 3.6 mph 6.0 mph 63 % 0.00 in
15:34 80.5 °F 66.3 °F 29.92 in West 2.6 mph 5.0 mph 62 % 0.00 in
15:39 80.5 °F 66.3 °F 29.92 in NNE 0.8 mph 3.5 mph 62 % 0.00 in
15:44 80.3 °F 67.0 °F 29.92 in NNW 0.7 mph 3.5 mph 64 % 0.00 in
15:49 80.2 °F 67.8 °F 29.92 in WNW 0.3 mph 2.3 mph 66 % 0.00 in
15:54 80.2 °F 67.8 °F 29.92 in NW 3.5 mph 5.8 mph 66 % 0.00 in
15:59 80.3 °F 66.1 °F 29.92 in WNW 1.8 mph 5.8 mph 62 % 0.00 in
16:04 80.4 °F 67.6 °F 29.92 in NE 1.9 mph 4.6 mph 65 % 0.00 in
16:09 80.4 °F 66.6 °F 29.92 in WNW 1.6 mph 3.5 mph 63 % 0.00 in
16:14 80.3 °F 67.0 °F 29.92 in NNW 1.9 mph 4.6 mph 64 % 0.00 in
16:19 80.3 °F 66.1 °F 29.92 in NW 3.9 mph 9.2 mph 62 % 0.00 in
16:24 80.2 °F 66.0 °F 29.92 in NNW 2.5 mph 6.9 mph 62 % 0.00 in
16:29 80.0 °F 66.3 °F 29.92 in WNW 0.2 mph 4.6 mph 63 % 0.00 in
16:34 80.0 °F 66.7 °F 29.92 in WNW 1.0 mph 3.5 mph 64 % 0.00 in
16:39 80.0 °F 65.8 °F 29.92 in NW 2.9 mph 5.8 mph 62 % 0.00 in
16:44 79.8 °F 67.0 °F 29.92 in WNW 1.3 mph 5.0 mph 65 % 0.00 in
16:49 79.6 °F 65.9 °F 29.92 in NW 2.5 mph 3.0 mph 63 % 0.00 in
16:54 79.4 °F 65.7 °F 29.92 in WNW 1.1 mph 4.0 mph 63 % 0.00 in
16:59 79.2 °F 65.1 °F 29.92 in WNW 1.1 mph 5.8 mph 62 % 0.00 in
17:04 79.1 °F 65.0 °F 29.92 in WNW 2.7 mph 3.5 mph 62 % 0.00 in
17:09 79.1 °F 64.0 °F 29.92 in WNW 3.4 mph 6.9 mph 60 % 0.00 in
17:14 79.0 °F 65.3 °F 29.92 in NNW 0.9 mph 5.8 mph 63 % 0.00 in
17:19 78.9 °F 65.2 °F 29.92 in WNW 1.9 mph 7.0 mph 63 % 0.00 in
17:24 78.8 °F 66.0 °F 29.92 in WNW 0.6 mph 3.5 mph 65 % 0.00 in
17:29 78.7 °F 65.9 °F 29.92 in NW 0.4 mph 3.5 mph 65 % 0.00 in
17:34 78.5 °F 65.8 °F 29.92 in NNW 0.9 mph 3.5 mph 65 % 0.00 in
17:40 78.3 °F 66.0 °F 29.92 in NW 1.2 mph 3.5 mph 66 % 0.00 in
17:45 78.2 °F 65.5 °F 29.93 in WNW 2.8 mph 5.8 mph 65 % 0.00 in
17:50 78.0 °F 66.2 °F 29.93 in NW 0.3 mph 2.3 mph 67 % 0.00 in
17:55 77.9 °F 66.1 °F 29.93 in NNW 0.3 mph 3.5 mph 67 % 0.00 in
18:00 77.7 °F 66.3 °F 29.93 in WNW 0.3 mph 4.6 mph 68 % 0.00 in
18:05 77.5 °F 64.8 °F 29.94 in WNW 1.3 mph 3.5 mph 65 % 0.00 in
18:10 77.5 °F 65.7 °F 29.93 in NW 0.1 mph 2.3 mph 67 % 0.00 in
18:15 77.5 °F 65.7 °F 29.94 in NNW 0.2 mph 2.3 mph 67 % 0.00 in
18:20 77.4 °F 65.6 °F 29.94 in WNW 1.9 mph 6.9 mph 67 % 0.00 in
18:25 77.4 °F 65.1 °F 29.94 in WNW 0.8 mph 4.0 mph 66 % 0.00 in
18:30 77.3 °F 65.1 °F 29.94 in WNW 2.1 mph 3.5 mph 66 % 0.00 in
18:35 77.3 °F 64.6 °F 29.94 in West 0.3 mph 1.2 mph 65 % 0.00 in
18:40 77.1 °F 64.9 °F 29.94 in Calm   1.2 mph 66 % 0.00 in
18:45 77.0 °F 63.9 °F 29.94 in WNW 0.8 mph 3.5 mph 64 % 0.00 in
18:50 76.9 °F 63.8 °F 29.95 in WNW 0.6 mph 3.5 mph 64 % 0.00 in
18:55 76.8 °F 64.6 °F 29.95 in Calm     66 % 0.00 in
19:00 76.7 °F 64.0 °F 29.95 in WNW 2.8 mph 3.5 mph 65 % 0.00 in
19:05 76.6 °F 63.5 °F 29.95 in WNW 1.6 mph 3.5 mph 64 % 0.00 in
19:10 76.5 °F 63.9 °F 29.95 in WNW 0.4 mph 3.5 mph 65 % 0.00 in
19:15 76.3 °F 63.7 °F 29.95 in Calm     65 % 0.00 in
19:20 76.2 °F 64.0 °F 29.96 in Calm     66 % 0.00 in
19:25 75.9 °F 63.7 °F 29.97 in Calm     66 % 0.00 in
19:30 75.8 °F 63.6 °F 29.97 in Calm     66 % 0.00 in
19:35 75.5 °F 63.3 °F 29.97 in Calm     66 % 0.00 in
19:41 75.3 °F 64.0 °F 29.97 in Calm   1.0 mph 68 % 0.00 in
19:46 74.9 °F 64.1 °F 29.97 in Calm     69 % 0.00 in
19:51 74.7 °F 63.8 °F 29.98 in Calm     69 % 0.00 in
19:56 74.2 °F 64.2 °F 29.98 in Calm     71 % 0.00 in
20:01 73.8 °F 64.2 °F 29.98 in Calm     72 % 0.00 in
20:06 73.4 °F 64.2 °F 29.98 in Calm     73 % 0.00 in
20:11 73.0 °F 64.6 °F 29.98 in Calm     75 % 0.00 in
20:16 72.6 °F 64.6 °F 29.99 in Calm     76 % 0.00 in
20:21 72.3 °F 64.3 °F 29.98 in Calm     76 % 0.00 in
20:26 71.9 °F 64.3 °F 29.99 in Calm     77 % 0.00 in
20:31 71.4 °F 63.8 °F 29.99 in Calm     77 % 0.00 in
20:36 71.0 °F 63.8 °F 29.99 in Calm     78 % 0.00 in
20:41 70.7 °F 63.5 °F 30.00 in Calm   1.0 mph 78 % 0.00 in
20:46 70.3 °F 63.5 °F 30.00 in Calm   1.0 mph 79 % 0.00 in
20:51 70.0 °F 63.2 °F 29.99 in Calm     79 % 0.00 in
20:56 69.8 °F 62.9 °F 30.00 in Calm     79 % 0.00 in
21:01 69.4 °F 63.0 °F 30.00 in Calm     80 % 0.00 in
21:06 69.1 °F 63.0 °F 30.00 in Calm     81 % 0.00 in
21:11 68.8 °F 62.7 °F 30.00 in Calm     81 % 0.00 in
21:16 68.6 °F 62.5 °F 30.00 in Calm     81 % 0.00 in
21:21 68.4 °F 62.7 °F 30.00 in Calm     82 % 0.00 in
21:26 68.1 °F 62.4 °F 30.01 in Calm     82 % 0.00 in
21:31 67.9 °F 62.2 °F 30.01 in Calm   1.2 mph 82 % 0.00 in
21:36 67.7 °F 62.0 °F 30.01 in WNW 0.1 mph 1.2 mph 82 % 0.00 in
21:41 67.5 °F 62.2 °F 30.01 in Calm     83 % 0.00 in
21:42 67.5 °F 62.2 °F 30.01 in Calm   1.2 mph 83 % 0.00 in
21:48 67.3 °F 62.3 °F 30.01 in WNW 0.1 mph 1.2 mph 84 % 0.00 in
21:53 67.1 °F 62.1 °F 30.01 in WNW 0.1 mph 1.2 mph 84 % 0.00 in
21:58 67.0 °F 62.0 °F 30.01 in Calm   1.2 mph 84 % 0.00 in
22:03 66.8 °F 61.8 °F 30.01 in Calm     84 % 0.00 in
22:08 66.7 °F 61.7 °F 30.02 in Calm     84 % 0.00 in
22:13 66.6 °F 61.6 °F 30.02 in Calm     84 % 0.00 in
22:18 66.5 °F 61.5 °F 30.02 in Calm     84 % 0.00 in
22:23 66.4 °F 61.4 °F 30.02 in Calm     84 % 0.00 in
22:28 66.3 °F 61.3 °F 30.02 in WNW 0.1 mph 1.2 mph 84 % 0.00 in
22:33 66.2 °F 61.2 °F 30.02 in Calm     84 % 0.00 in
22:38 66.2 °F 61.2 °F 30.02 in Calm     84 % 0.00 in
22:43 66.1 °F 61.5 °F 30.02 in Calm     85 % 0.00 in
22:48 66.1 °F 61.5 °F 30.02 in Calm     85 % 0.00 in
22:53 66.0 °F 61.4 °F 30.03 in Calm     85 % 0.00 in
22:58 66.0 °F 61.7 °F 30.03 in Calm     86 % 0.00 in
23:03 66.0 °F 61.7 °F 30.03 in Calm     86 % 0.00 in
23:08 66.0 °F 61.7 °F 30.03 in Calm     86 % 0.00 in
23:14 66.0 °F 61.7 °F 30.03 in Calm     86 % 0.00 in
23:18 66.0 °F 61.7 °F 30.03 in Calm     86 % 0.00 in
23:19 66.0 °F 61.7 °F 30.03 in Calm     86 % 0.00 in
23:23 66.0 °F 61.7 °F 30.03 in Calm     86 % 0.00 in
23:24 66.0 °F 61.7 °F 30.03 in Calm     86 % 0.00 in
23:28 66.0 °F 61.7 °F 30.03 in Calm     86 % 0.00 in
23:33 66.0 °F 61.7 °F 30.03 in Calm     86 % 0.00 in
23:38 66.0 °F 62.0 °F 30.03 in Calm     87 % 0.00 in
23:43 66.0 °F 62.0 °F 30.04 in Calm     87 % 0.00 in
23:48 66.0 °F 62.0 °F 30.04 in Calm     87 % 0.00 in
23:53 66.0 °F 62.0 °F 30.04 in Calm     87 % 0.00 in
23:58 65.9 °F 61.9 °F 30.04 in Calm     87 % 0.00 in
Crab Meadow Weather
Compliments of Weather Underground - 3 mb

Script developed by  Jim McMurry - jmcmurry@mwt.net Adapted for the template by  Wim van der Kuil - Leuven-Template.eu

Weather Terms: Tornado Watch - Conditions are favorable for the development of severe thunderstorms and tornadoes in and close to the watch area. These watches are issued for large areas by the Storm Prediction Center in Norman, Oklahoma, and are usually valid for four to six hours.